Portada
METAR-TAF:

METAR-TAF

Aeropuertos :

Valcartier, Quebec, Canadá

latitud: 46-54N, longitud: 071-30W, altitud: 168 m

Observación

El informe se hizo hace 20 minutos, a las 03:00 UTC
Viento 4 kt del norte
Temperatura 3°C
Humedad 81%
Presión 1035 hPa
Visibilidad: 14.5 km

METAR: CYOY 250300Z AUTO 35004KT 9SM 03/M00 A3057 RMK SLP361

Hora: 23:20 (03:20 UTC)

Pronóstico

El informe se hizo hace 3 horas y 50 minutos, a las 23:30 UTC
Pronóstico válido del 25 a las 00 UTC al 25 a las 12 UTC
Viento 3 kt con dirección variable
Visibilidad: 10 km
Cielo nuboso a una altura de 15000 ft
Cielo cubierto a una altura de 25000 ft

TAF: CYOY 242330Z 2500/2512 VRB03KT P6SM BKN150 OVC250 RMK FCST BASED ON AUTO OBS 250200-251200Z. NXT FCST BY 250600Z

Observaciones y pronósticos meteorológicos de más de 4000 aeropuertos (mensajes METAR y TAF).

Los puntos amarillos y rojos representan las estaciones disponibles.

Ponga el ratón en el punto deseado para ver el nombre de la estación.

Haga clic para ver las observaciones y los pronósticos meteorológicos.

Para cambiar el mapa : haga clic en los botones verdes con una cruz de color negro para hacer un zoom, en el botón verde con un guión para alejar o en las flechas verdes para mapas adyacentes.


METAR-TAF: